createdAt,value
2019-04-07T00:01:23.083Z,25.50
2019-04-07T00:06:25.741Z,23.73
2019-04-07T00:11:28.141Z,22.40
2019-04-07T00:16:35.164Z,21.33
2019-04-07T00:21:37.021Z,26.77
2019-04-07T00:26:39.386Z,23.20
2019-04-07T00:31:41.530Z,24.83
2019-04-07T00:36:44.820Z,22.30
2019-04-07T00:41:46.481Z,26.03
2019-04-07T00:46:48.670Z,20.57
2019-04-07T00:51:51.992Z,23.33
2019-04-07T00:56:54.512Z,24.07
2019-04-07T01:01:56.765Z,24.47
2019-04-07T01:07:00.547Z,26.47
2019-04-07T01:12:05.030Z,22.90
2019-04-07T01:17:07.103Z,24.07
2019-04-07T01:22:09.075Z,22.63
2019-04-07T01:27:11.586Z,30.87
2019-04-07T01:32:13.796Z,20.63
2019-04-07T01:37:16.299Z,23.80
2019-04-07T01:42:25.677Z,26.07
2019-04-07T01:47:29.326Z,19.80
2019-04-07T01:52:36.553Z,18.40
2019-04-07T01:57:40.182Z,22.00
2019-04-07T02:02:58.522Z,21.80
2019-04-07T02:08:08.689Z,24.30
2019-04-07T02:13:16.527Z,20.37
2019-04-07T02:18:23.460Z,21.00
2019-04-07T02:23:28.167Z,20.33
2019-04-07T02:28:31.863Z,17.87
2019-04-07T02:33:35.930Z,20.57
2019-04-07T02:38:56.260Z,17.30
2019-04-07T02:44:02.935Z,18.00
2019-04-07T02:49:24.176Z,21.20
2019-04-07T02:54:30.264Z,23.17
2019-04-07T02:59:44.290Z,19.23
2019-04-07T03:04:50.148Z,21.43
2019-04-07T03:09:56.955Z,20.90
2019-04-07T03:15:20.017Z,38.83
2019-04-07T03:20:26.948Z,20.20
2019-04-07T03:25:48.707Z,31.87
2019-04-07T03:31:08.067Z,25.30
2019-04-07T03:36:19.862Z,26.03
2019-04-07T03:41:35.266Z,19.40
2019-04-07T03:46:38.942Z,18.43
2019-04-07T03:51:51.950Z,23.37
2019-04-07T03:57:04.796Z,45.80
2019-04-07T04:02:08.655Z,25.00
2019-04-07T04:07:22.403Z,21.93
2019-04-07T04:12:22.318Z,22.83
2019-04-07T04:17:25.117Z,25.27
2019-04-07T04:22:29.010Z,20.77
2019-04-07T04:27:31.319Z,24.53
2019-04-07T04:32:33.434Z,21.23
2019-04-07T04:37:42.550Z,20.87
2019-04-07T04:42:38.635Z,22.07
2019-04-07T04:47:40.899Z,20.63
2019-04-07T04:52:43.433Z,23.77
2019-04-07T04:57:45.838Z,18.43
2019-04-07T05:02:48.216Z,20.47
2019-04-07T05:08:00.223Z,21.90
2019-04-07T05:12:55.015Z,21.10
2019-04-07T05:17:57.299Z,23.60
2019-04-07T05:22:59.799Z,19.33
2019-04-07T05:28:02.054Z,22.43
2019-04-07T05:33:04.595Z,19.00
2019-04-07T05:38:07.738Z,18.90
2019-04-07T05:43:10.678Z,20.00
2019-04-07T05:48:13.192Z,22.90
2019-04-07T05:53:16.962Z,32.47
2019-04-07T05:58:19.160Z,21.00
2019-04-07T06:03:20.840Z,23.20
2019-04-07T06:08:30.198Z,21.53
2019-04-07T06:13:27.069Z,21.07
2019-04-07T06:18:31.937Z,24.57
2019-04-07T06:23:33.145Z,37.63
2019-04-07T06:28:35.593Z,23.10
2019-04-07T06:33:39.244Z,26.53
2019-04-07T06:38:46.312Z,21.57
2019-04-07T06:43:45.186Z,23.60
2019-04-07T06:49:05.907Z,24.70
2019-04-07T06:54:12.575Z,25.77
2019-04-07T06:59:16.579Z,25.60
2019-04-07T07:04:30.020Z,30.40
2019-04-07T07:09:39.738Z,26.37
2019-04-07T07:14:45.937Z,41.03
2019-04-07T07:19:48.933Z,30.97
2019-04-07T07:24:55.410Z,29.60
2019-04-07T07:29:55.497Z,32.60
2019-04-07T07:34:58.484Z,23.77
2019-04-07T07:40:00.947Z,30.30
2019-04-07T07:45:08.090Z,29.50
2019-04-07T07:50:08.709Z,47.47
2019-04-07T07:55:11.958Z,26.07
2019-04-07T08:00:14.556Z,51.50
2019-04-07T08:05:16.977Z,57.00
2019-04-07T08:10:21.300Z,56.10
2019-04-07T08:15:29.168Z,56.80
2019-04-07T08:20:28.541Z,56.20
2019-04-07T08:25:31.357Z,55.47
2019-04-07T08:30:33.569Z,56.17
2019-04-07T08:35:38.723Z,54.87
2019-04-07T08:40:39.247Z,52.07
2019-04-07T08:45:41.441Z,56.60
2019-04-07T08:50:43.471Z,52.30
2019-04-07T08:55:47.750Z,49.63
2019-04-07T09:00:52.683Z,33.80
2019-04-07T09:06:14.464Z,32.37
2019-04-07T09:11:22.149Z,32.80
2019-04-07T09:16:24.696Z,25.17
2019-04-07T09:21:38.862Z,33.97
2019-04-07T09:26:55.713Z,30.70
2019-04-07T09:32:02.642Z,27.30
2019-04-07T09:37:20.693Z,28.20
2019-04-07T09:42:26.809Z,43.67
2019-04-07T09:47:48.439Z,51.87
2019-04-07T09:52:52.673Z,49.23
2019-04-07T09:58:11.873Z,40.27
2019-04-07T10:03:16.357Z,48.27
2019-04-07T10:08:20.340Z,40.80
2019-04-07T10:13:27.442Z,43.27
2019-04-07T10:18:46.583Z,33.53
2019-04-07T10:23:53.976Z,25.83
2019-04-07T10:28:57.764Z,23.53
2019-04-07T10:34:01.876Z,38.27
2019-04-07T10:39:19.894Z,34.53
2019-04-07T10:44:40.192Z,29.90
2019-04-07T10:50:06.825Z,27.87
2019-04-07T10:55:07.358Z,31.27
2019-04-07T11:00:24.085Z,34.73
2019-04-07T11:05:30.411Z,28.23
2019-04-07T11:10:44.171Z,24.57
2019-04-07T11:15:55.188Z,26.10
2019-04-07T11:20:58.999Z,26.50
2019-04-07T11:26:02.641Z,26.43
2019-04-07T11:31:10.275Z,29.43
2019-04-07T11:36:24.394Z,28.40
2019-04-07T11:41:43.561Z,28.43
2019-04-07T11:46:47.342Z,23.80
2019-04-07T11:51:55.489Z,26.10
2019-04-07T11:57:11.900Z,25.80
2019-04-07T12:02:33.733Z,25.33
2019-04-07T12:07:46.502Z,28.30
2019-04-07T12:12:57.015Z,25.07
2019-04-07T12:18:01.806Z,22.93
2019-04-07T12:23:24.272Z,22.27
2019-04-07T12:28:31.329Z,30.70
2019-04-07T12:33:42.005Z,25.13
2019-04-07T12:39:03.929Z,28.50
2019-04-07T12:44:13.374Z,22.47
2019-04-07T12:49:23.154Z,21.33
2019-04-07T12:54:29.363Z,24.10
2019-04-07T12:59:39.176Z,21.00
2019-04-07T13:04:59.695Z,29.70
2019-04-07T13:10:05.386Z,26.00
2019-04-07T13:15:26.167Z,27.00
2019-04-07T13:20:49.232Z,24.23
2019-04-07T13:25:58.851Z,22.43
2019-04-07T13:31:18.175Z,25.00
2019-04-07T13:36:28.336Z,21.90
2019-04-07T13:41:41.601Z,21.93
2019-04-07T13:46:40.136Z,23.00
2019-04-07T13:51:52.688Z,21.03
2019-04-07T13:57:11.443Z,19.83
2019-04-07T14:02:33.771Z,19.27
2019-04-07T14:07:49.176Z,24.03
2019-04-07T14:12:55.624Z,28.30
2019-04-07T14:18:00.056Z,19.30
2019-04-07T14:23:13.253Z,28.50
2019-04-07T14:28:16.879Z,18.30
2019-04-07T14:33:33.003Z,20.10
2019-04-07T14:38:54.247Z,19.57
2019-04-07T14:43:58.327Z,19.27
2019-04-07T14:49:05.487Z,18.93
2019-04-07T14:54:12.397Z,17.17
2019-04-07T14:59:33.946Z,22.90
2019-04-07T15:04:37.974Z,20.80
2019-04-07T15:09:41.634Z,17.63
2019-04-07T15:14:43.815Z,22.20
2019-04-07T15:19:46.240Z,16.03
2019-04-07T15:24:50.301Z,27.27
2019-04-07T15:29:52.074Z,15.70
2019-04-07T15:34:54.643Z,18.87
2019-04-07T15:39:58.983Z,18.27
2019-04-07T15:45:02.446Z,21.80
2019-04-07T15:50:06.318Z,21.80
2019-04-07T15:55:08.578Z,18.50
2019-04-07T16:00:11.220Z,18.83
2019-04-07T16:05:13.707Z,19.80
2019-04-07T16:10:21.999Z,21.47
2019-04-07T16:15:23.084Z,18.13
2019-04-07T16:20:32.471Z,18.37
2019-04-07T16:25:30.279Z,19.57
2019-04-07T16:30:32.805Z,22.73
2019-04-07T16:35:34.741Z,19.27
2019-04-07T16:40:40.426Z,18.70
2019-04-07T16:45:44.108Z,18.83
2019-04-07T16:50:45.143Z,18.93
2019-04-07T16:55:50.555Z,29.50
2019-04-07T17:00:51.004Z,22.73
2019-04-07T17:05:57.581Z,16.23
2019-04-07T17:10:56.649Z,21.50
2019-04-07T17:15:59.325Z,20.23
2019-04-07T17:21:08.705Z,17.80
2019-04-07T17:26:10.413Z,25.53
2019-04-07T17:31:13.017Z,18.70
2019-04-07T17:36:17.718Z,20.77
2019-04-07T17:41:20.092Z,20.50
2019-04-07T17:46:25.882Z,22.40
2019-04-07T17:51:30.715Z,21.67
2019-04-07T17:56:51.236Z,19.83
2019-04-07T18:01:56.406Z,23.37
2019-04-07T18:07:06.007Z,18.70
2019-04-07T18:12:18.263Z,22.07
2019-04-07T18:17:30.812Z,21.30
2019-04-07T18:22:34.787Z,21.80
2019-04-07T18:27:56.803Z,21.03
2019-04-07T18:33:19.300Z,19.93
2019-04-07T18:38:42.613Z,19.83
2019-04-07T18:43:50.446Z,30.60
2019-04-07T18:49:06.649Z,23.47
2019-04-07T18:54:30.765Z,23.23
2019-04-07T18:59:37.617Z,25.73
2019-04-07T19:04:41.883Z,22.20
2019-04-07T19:10:10.404Z,23.17
2019-04-07T19:15:14.354Z,23.70
2019-04-07T19:20:27.338Z,24.50
2019-04-07T19:25:46.918Z,23.40
2019-04-07T19:31:27.301Z,30.53
2019-04-07T19:36:32.904Z,23.00
2019-04-07T19:41:43.079Z,23.07
2019-04-07T19:46:52.927Z,44.73
2019-04-07T19:51:57.427Z,26.33
2019-04-07T19:57:23.551Z,22.40
2019-04-07T20:02:30.513Z,33.27
2019-04-07T20:07:35.277Z,44.47
2019-04-07T20:12:42.507Z,28.63
2019-04-07T20:17:52.731Z,29.93
2019-04-07T20:23:06.435Z,24.97
2019-04-07T20:28:13.137Z,44.60
2019-04-07T20:33:21.539Z,26.23
2019-04-07T20:38:32.142Z,22.33
2019-04-07T20:43:53.963Z,31.23
2019-04-07T20:49:08.417Z,32.50
2019-04-07T20:54:31.557Z,35.60
2019-04-07T20:59:49.447Z,25.40
2019-04-07T21:04:52.086Z,32.33
2019-04-07T21:10:05.242Z,24.47
2019-04-07T21:15:18.240Z,38.23
2019-04-07T21:20:15.175Z,37.70
2019-04-07T21:25:22.905Z,26.33
2019-04-07T21:30:27.571Z,32.10
2019-04-07T21:35:40.531Z,29.93
2019-04-07T21:40:45.831Z,22.90
2019-04-07T21:45:59.173Z,26.20
2019-04-07T21:51:13.484Z,36.70
2019-04-07T21:56:17.898Z,26.77
2019-04-07T22:01:30.457Z,29.97
2019-04-07T22:06:37.529Z,32.43
2019-04-07T22:11:41.903Z,30.97
2019-04-07T22:16:48.965Z,24.57
2019-04-07T22:21:54.986Z,22.27
2019-04-07T22:26:55.132Z,25.80
2019-04-07T22:32:01.090Z,20.70
2019-04-07T22:37:04.791Z,23.00
2019-04-07T22:42:12.799Z,22.00
2019-04-07T22:47:15.759Z,33.87
2019-04-07T22:52:18.932Z,24.87
2019-04-07T22:57:21.818Z,23.30
2019-04-07T23:02:24.169Z,24.53
2019-04-07T23:07:29.624Z,27.60
2019-04-07T23:12:31.409Z,17.37
2019-04-07T23:17:34.147Z,23.47
2019-04-07T23:22:36.206Z,22.73
2019-04-07T23:27:38.060Z,16.10
2019-04-07T23:32:39.852Z,13.47
2019-04-07T23:37:41.652Z,14.20
2019-04-07T23:42:43.375Z,13.87
2019-04-07T23:47:45.165Z,12.63
2019-04-07T23:52:47.547Z,11.23
2019-04-07T23:57:49.809Z,10.57
